METAR ET TAF INFORMATION
METAR FOR ENHV
ADDS - METARS form results

(0530 UTC 16 October 2019)
Data provider http://aviationweather.gov/metar/data/
 
METAR text: ENHV 160450Z VRB01KT 9999 BKN012 01/M00 Q1017
Conditions at: ENHV (HONNINGSVAG/VALA, NO) observed 0450 UTC 16 October 2019
Temperature: 1.0°C (34°F)
Dewpoint: 0.0°C (32°F) [RH = 93%]
Pressure (altimeter): 30.03 inches Hg (1017.0 mb)
Winds: variable direction winds at 1 MPH (1 knots; 0.5 m/s)
Visibility: 6 or more miles (10+ km)
Ceiling: 1200 feet AGL
Clouds: broken clouds at 1200 feet AGL
Weather: no significant weather observed at this time

 AÉROPORT DE AÉROPORT

 INFORMATIONS DE PISTE
Piste 08 Longueur de la piste 2625 ft Largeur de la piste 0 ft
Élévation de la piste 23 ft Seuil de la piste déplacés 0 ft Runway heading 0
Piste 26 Longueur de la piste 2625 ft Largeur de la piste 0 ft
Élévation de la piste 44 ft Seuil de la piste déplacés 0 ft Runway heading 0

 AÉROPORT FRÉQUENCES
Type AFIS Nom Féquence 119.8 MHZ

 SIDA DE NAVIGATION
Type NDB Nom Helnes Féquence 309 KHZ



Powered by Virtual Airlines Manager [v2.6.2]